This is the latest recevied weather packets stored in our database for station/object W2BP-13. If no packets are shown the sender has not sent any weather packets the latest 10 day(s).
| Time | Temp. | Humidity | Pressure | Rain* | Wind** | Luminosity | Snow |
|---|---|---|---|---|---|---|---|
| 1777660832 | 23.33° C | 39% | 1020.7 hPa | 0 mm | - | - | - |
| 1777659933 | 22.78° C | 38% | 1020.9 hPa | 0 mm | - | - | - |
| 1777659033 | 22.78° C | 42% | 1021.1 hPa | 0 mm | - | - | - |
| 1777658133 | 22.22° C | 39% | 1020.9 hPa | 0 mm | - | - | - |
| 1777657232 | 22.22° C | 40% | 1021.1 hPa | 0 mm | - | - | - |
| 1777656333 | 20.56° C | 44% | 1021.4 hPa | 0 mm | - | - | - |
| 1777655433 | 20° C | 46% | 1021.5 hPa | 0 mm | - | - | - |
| 1777654532 | 19.44° C | 47% | 1021.5 hPa | 0 mm | - | - | - |
| 1777653632 | 18.89° C | 53% | 1021.8 hPa | 0 mm | - | - | - |
| 1777652733 | 17.22° C | 55% | 1021.7 hPa | 0 mm | - | - | - |
| 1777651833 | 16.67° C | 53% | 1022 hPa | 0 mm | - | - | - |
| 1777650933 | 16.11° C | 56% | 1022.1 hPa | 0 mm | - | - | - |
| 1777650033 | 15° C | 57% | 1022.2 hPa | 0 mm | - | - | - |
| 1777649132 | 15.56° C | 56% | 1022.1 hPa | 0 mm | - | - | - |
| 1777648233 | 13.89° C | 61% | 1021.9 hPa | 0 mm | - | - | - |
| 1777647333 | 13.89° C | 62% | 1022 hPa | 0 mm | - | - | - |
| 1777646433 | 13.33° C | 63% | 1021.8 hPa | 0 mm | - | - | - |
| 1777645533 | 12.78° C | 67% | 1021.7 hPa | 0 mm | - | - | - |
| 1777644633 | 11.67° C | 72% | 1021.4 hPa | 0 mm | - | - | - |
| 1777643733 | 10° C | 74% | 1021.8 hPa | 0 mm | - | - | - |
| 1777642832 | 8.89° C | 80% | 1021.4 hPa | 0 mm | - | - | - |
| 1777641933 | 6.67° C | 87% | 1021.5 hPa | 0 mm | - | - | - |
| 1777641033 | 6.67° C | 87% | 1020.9 hPa | 0 mm | - | - | - |
| 1777640133 | 6.67° C | 87% | 1020.8 hPa | 0 mm | - | - | - |
| 1777639233 | 6.67° C | 85% | 1021.1 hPa | 0 mm | - | - | - |
* Rain latest hour (hover to see other rain measurements)
** Current wind speed in m/s (hover to see current wind gust speed)